This is the latest recevied weather packets stored in our database for station/object HS9UAC-10. If no packets are shown the sender has not sent any weather packets the latest 10 day(s).
| Time | Temp. | Humidity | Pressure | Rain* | Wind** | Luminosity | Snow |
|---|---|---|---|---|---|---|---|
| 1777709802 | 41.67° C | 45% | 1004 hPa | - | - | 0 W/m² | - |
| 1777708877 | 41.67° C | 45% | 1005 hPa | - | - | 0 W/m² | - |
| 1777707952 | 39.44° C | 50% | 1005 hPa | - | - | 0 W/m² | - |
| 1777707028 | 37.78° C | 55% | 1005 hPa | - | - | 0 W/m² | - |
| 1777706103 | 37.78° C | 55% | 1006 hPa | - | - | 0 W/m² | - |
| 1777705179 | 37.78° C | 54% | 1006 hPa | - | - | 0 W/m² | - |
| 1777704254 | 38.89° C | 51% | 1006 hPa | - | - | 0 W/m² | - |
| 1777703330 | 39.44° C | 47% | 1006 hPa | - | - | 0 W/m² | - |
| 1777702405 | 38.33° C | 54% | 1007 hPa | - | - | 0 W/m² | - |
| 1777701481 | 38.33° C | 55% | 1007 hPa | - | - | 0 W/m² | - |
| 1777700556 | 38.33° C | 54% | 1007 hPa | - | - | 0 W/m² | - |
| 1777699631 | 38.33° C | 51% | 1007 hPa | - | - | 0 W/m² | - |
| 1777698706 | 38.89° C | 50% | 1007 hPa | - | - | 0 W/m² | - |
| 1777697782 | 37.78° C | 53% | 1008 hPa | - | - | 0 W/m² | - |
| 1777696857 | 38.33° C | 51% | 1008 hPa | - | - | 0 W/m² | - |
| 1777695933 | 37.78° C | 53% | 1008 hPa | - | - | 0 W/m² | - |
| 1777695008 | 37.78° C | 54% | 1009 hPa | - | - | 0 W/m² | - |
| 1777694083 | 37.22° C | 59% | 1009 hPa | - | - | 0 W/m² | - |
| 1777693159 | 37.78° C | 57% | 1009 hPa | - | - | 0 W/m² | - |
| 1777692234 | 36.67° C | 63% | 1009 hPa | - | - | 0 W/m² | - |
| 1777691310 | 37.22° C | 60% | 1009 hPa | - | - | 0 W/m² | - |
| 1777690385 | 37.22° C | 60% | 1009 hPa | - | - | 0 W/m² | - |
| 1777689461 | 36.67° C | 63% | 1009 hPa | - | - | 0 W/m² | - |
| 1777688536 | 36.11° C | 62% | 1009 hPa | - | - | 0 W/m² | - |
| 1777687612 | 36.11° C | 67% | 1009 hPa | - | - | 0 W/m² | - |
* Rain since midnight (hover to see other rain measurements)
** Current wind speed in m/s (hover to see current wind gust speed)